Terminal Aerodrome Forecast
Issued by NWS

Home | Current Version | Previous Version | Text Only | Print | Product List | Glossary On
Versions: 1 2 3 4 5 6 7 8 9 10 11 12 13 14 15 16 17 18 19 20 21 22 23 24 25 26 27
000
FTUS43 KSGF 240520
TAFJLN
TAF
KJLN 240520Z 2406/2506 16008KT P6SM OVC100
     FM241300 18008KT P6SM VCTS BKN020CB BKN050 PROB30 2415/2418 5SM
      -TSRA BR OVC015CB
     FM242000 17012KT P6SM OVC050=

USA.gov is the U.S. government's official web portal to all federal, state and local government web resources and services.